Time,TemperatureF,DewpointF,PressureIn,WindDirection,WindDirectionDegrees,WindSpeedMPH,WindSpeedGustMPH,Humidity,HourlyPrecipIn,Conditions,Clouds,dailyrainin,SolarRadiationWatts/m^2,SoftwareType,DateUTC
2013-03-03 00:01:00,21.0,17.0,-100.00,WSW,244,1.0,4.0,83,0.00,,,0.00,0.000000,,2013-03-03 05:01:00,
2013-03-03 00:32:00,21.0,17.0,-100.00,WSW,244,1.0,4.0,83,0.00,,,0.00,0.000000,,2013-03-03 05:32:00,
2013-03-03 00:42:00,21.0,17.0,-100.00,WSW,244,1.0,4.0,83,0.00,,,0.00,0.000000,,2013-03-03 05:42:00,
2013-03-03 00:52:00,21.0,17.0,-100.00,WSW,244,1.0,4.0,83,0.00,,,0.00,0.000000,,2013-03-03 05:52:00,
2013-03-03 01:01:00,21.0,17.0,-100.00,WSW,237,1.0,4.0,84,0.00,,,0.00,0.000000,,2013-03-03 06:01:00,
2013-03-03 01:22:00,21.0,17.0,-100.00,WSW,237,1.0,4.0,84,0.00,,,0.00,0.000000,,2013-03-03 06:22:00,
2013-03-03 01:32:00,21.0,17.0,-100.00,WSW,237,1.0,4.0,84,0.00,,,0.00,0.000000,,2013-03-03 06:32:00,
2013-03-03 01:42:00,21.0,17.0,-100.00,WSW,237,1.0,4.0,84,0.00,,,0.00,0.000000,,2013-03-03 06:42:00,
2013-03-03 01:52:00,21.0,17.0,-100.00,WSW,237,1.0,4.0,84,0.00,,,0.00,0.000000,,2013-03-03 06:52:00,
2013-03-03 02:01:00,21.0,17.0,-100.00,SW,230,1.0,4.0,83,0.00,,,0.00,0.000000,,2013-03-03 07:01:00,
2013-03-03 02:32:00,21.0,17.0,-100.00,SW,230,1.0,4.0,83,0.00,,,0.00,0.000000,,2013-03-03 07:32:00,
2013-03-03 02:42:00,21.0,17.0,-100.00,SW,230,1.0,4.0,83,0.00,,,0.00,0.000000,,2013-03-03 07:42:00,
2013-03-03 02:52:00,21.0,17.0,-100.00,SW,230,1.0,4.0,83,0.00,,,0.00,0.000000,,2013-03-03 07:52:00,
2013-03-03 03:01:00,20.0,16.0,-100.00,WSW,241,0.0,6.0,84,0.00,,,0.00,0.000000,,2013-03-03 08:01:00,
2013-03-03 03:32:00,20.0,16.0,-100.00,WSW,241,0.0,6.0,84,0.00,,,0.00,0.000000,,2013-03-03 08:32:00,
2013-03-03 03:42:00,20.0,16.0,-100.00,WSW,241,0.0,6.0,84,0.00,,,0.00,0.000000,,2013-03-03 08:42:00,
2013-03-03 03:54:00,20.0,16.0,-100.00,WSW,241,0.0,6.0,84,0.00,,,0.00,0.000000,,2013-03-03 08:54:00,
2013-03-03 04:01:00,19.0,15.0,-100.00,SW,233,0.0,5.0,84,0.00,,,0.00,0.000000,,2013-03-03 09:01:00,
2013-03-03 04:32:00,19.0,15.0,-100.00,SW,233,0.0,5.0,84,0.00,,,0.00,0.000000,,2013-03-03 09:32:00,
2013-03-03 04:42:00,19.0,15.0,-100.00,SW,233,0.0,5.0,84,0.00,,,0.00,0.000000,,2013-03-03 09:42:00,
2013-03-03 04:52:00,19.0,15.0,-100.00,SW,233,0.0,5.0,84,0.00,,,0.00,0.000000,,2013-03-03 09:52:00,
2013-03-03 05:01:00,19.0,15.0,-100.00,WSW,241,1.0,4.0,84,0.00,,,0.00,0.000000,,2013-03-03 10:01:00,
2013-03-03 05:32:00,19.0,15.0,-100.00,WSW,241,1.0,4.0,84,0.00,,,0.00,0.000000,,2013-03-03 10:32:00,
2013-03-03 05:42:00,19.0,15.0,-100.00,WSW,241,1.0,4.0,84,0.00,,,0.00,0.000000,,2013-03-03 10:42:00,
2013-03-03 05:52:00,19.0,15.0,-100.00,WSW,241,1.0,4.0,84,0.00,,,0.00,0.000000,,2013-03-03 10:52:00,
2013-03-03 06:01:00,19.0,15.0,-100.00,SW,233,0.0,5.0,84,0.00,,,0.00,0.000000,,2013-03-03 11:01:00,
2013-03-03 06:32:00,19.0,15.0,-100.00,SW,233,0.0,5.0,84,0.00,,,0.00,0.000000,,2013-03-03 11:32:00,
2013-03-03 06:42:00,19.0,15.0,-100.00,SW,233,0.0,5.0,84,0.00,,,0.00,0.000000,,2013-03-03 11:42:00,
2013-03-03 06:53:00,19.0,15.0,-100.00,SW,233,0.0,5.0,84,0.00,,,0.00,0.000000,,2013-03-03 11:53:00,
2013-03-03 07:01:00,19.0,15.0,-100.00,SW,232,1.0,4.0,83,0.00,,,0.00,2.000000,,2013-03-03 12:01:00,
2013-03-03 07:32:00,19.0,15.0,-100.00,SW,232,1.0,4.0,83,0.00,,,0.00,2.000000,,2013-03-03 12:32:00,
2013-03-03 07:43:00,19.0,15.0,-100.00,SW,232,1.0,4.0,83,0.00,,,0.00,2.000000,,2013-03-03 12:43:00,
2013-03-03 07:53:00,19.0,15.0,-100.00,SW,232,1.0,4.0,83,0.00,,,0.00,2.000000,,2013-03-03 12:53:00,
2013-03-03 08:01:00,21.0,14.0,-100.00,WSW,237,1.0,5.0,75,0.00,,,0.00,22.000000,,2013-03-03 13:01:00,
2013-03-03 08:32:00,21.0,14.0,-100.00,WSW,237,1.0,5.0,75,0.00,,,0.00,22.000000,,2013-03-03 13:32:00,
2013-03-03 08:42:00,21.0,14.0,-100.00,WSW,237,1.0,5.0,75,0.00,,,0.00,22.000000,,2013-03-03 13:42:00,
2013-03-03 08:52:00,21.0,14.0,-100.00,WSW,237,1.0,5.0,75,0.00,,,0.00,22.000000,,2013-03-03 13:52:00,
2013-03-03 09:01:00,23.0,15.0,-100.00,SW,235,2.0,8.0,70,0.00,,,0.00,46.000000,,2013-03-03 14:01:00,
2013-03-03 09:32:00,23.0,15.0,-100.00,SW,235,2.0,8.0,70,0.00,,,0.00,46.000000,,2013-03-03 14:32:00,
2013-03-03 09:42:00,23.0,15.0,-100.00,SW,235,2.0,8.0,70,0.00,,,0.00,46.000000,,2013-03-03 14:42:00,
2013-03-03 09:52:00,23.0,15.0,-100.00,SW,235,2.0,8.0,70,0.00,,,0.00,46.000000,,2013-03-03 14:52:00,
2013-03-03 10:01:00,25.0,15.0,-100.00,WSW,242,3.0,9.0,65,0.00,,,0.00,70.000000,,2013-03-03 15:01:00,
2013-03-03 10:32:00,25.0,15.0,-100.00,WSW,242,3.0,9.0,65,0.00,,,0.00,70.000000,,2013-03-03 15:32:00,
2013-03-03 10:42:00,25.0,15.0,-100.00,WSW,242,3.0,9.0,65,0.00,,,0.00,70.000000,,2013-03-03 15:42:00,
2013-03-03 10:52:00,25.0,15.0,-100.00,WSW,242,3.0,9.0,65,0.00,,,0.00,70.000000,,2013-03-03 15:52:00,
2013-03-03 11:01:00,27.0,15.0,-100.00,SW,231,3.0,10.0,60,0.00,,,0.00,80.000000,,2013-03-03 16:01:00,
2013-03-03 11:32:00,27.0,15.0,-100.00,SW,231,3.0,10.0,60,0.00,,,0.00,80.000000,,2013-03-03 16:32:00,
2013-03-03 11:42:00,27.0,15.0,-100.00,SW,231,3.0,10.0,60,0.00,,,0.00,80.000000,,2013-03-03 16:42:00,
2013-03-03 11:52:00,27.0,15.0,-100.00,SW,231,3.0,10.0,60,0.00,,,0.00,80.000000,,2013-03-03 16:52:00,
2013-03-03 12:01:00,29.0,15.0,-100.00,SW,234,2.0,9.0,56,0.00,,,0.00,102.000000,,2013-03-03 17:01:00,
2013-03-03 12:32:00,29.0,15.0,-100.00,SW,234,2.0,9.0,56,0.00,,,0.00,102.000000,,2013-03-03 17:32:00,
2013-03-03 12:42:00,29.0,15.0,-100.00,SW,234,2.0,9.0,56,0.00,,,0.00,102.000000,,2013-03-03 17:42:00,
2013-03-03 12:52:00,29.0,15.0,-100.00,SW,234,2.0,9.0,56,0.00,,,0.00,102.000000,,2013-03-03 17:52:00,
2013-03-03 13:01:00,29.0,15.0,-100.00,SW,236,3.0,9.0,56,0.05,,,0.05,272.000000,,2013-03-03 18:01:00,
2013-03-03 13:22:00,29.0,15.0,-100.00,SW,236,3.0,9.0,56,0.05,,,0.05,272.000000,,2013-03-03 18:22:00,
2013-03-03 13:32:00,29.0,15.0,-100.00,SW,236,3.0,9.0,56,0.05,,,0.05,272.000000,,2013-03-03 18:32:00,
2013-03-03 13:42:00,29.0,15.0,-100.00,SW,236,3.0,9.0,56,0.05,,,0.05,272.000000,,2013-03-03 18:42:00,
2013-03-03 13:52:00,29.0,15.0,-100.00,SW,236,3.0,9.0,56,0.05,,,0.05,272.000000,,2013-03-03 18:52:00,
2013-03-03 14:01:00,29.0,15.0,-100.00,WSW,244,3.0,11.0,56,0.05,,,0.10,297.000000,,2013-03-03 19:01:00,
2013-03-03 14:22:00,29.0,15.0,-100.00,WSW,244,3.0,11.0,56,0.05,,,0.10,297.000000,,2013-03-03 19:22:00,
2013-03-03 14:32:00,29.0,15.0,-100.00,WSW,244,3.0,11.0,56,0.05,,,0.10,297.000000,,2013-03-03 19:32:00,
2013-03-03 14:42:00,29.0,15.0,-100.00,WSW,244,3.0,11.0,56,0.05,,,0.10,297.000000,,2013-03-03 19:42:00,
2013-03-03 14:52:00,29.0,15.0,-100.00,WSW,244,3.0,11.0,56,0.05,,,0.10,297.000000,,2013-03-03 19:52:00,
2013-03-03 15:01:00,28.0,15.0,-100.00,WSW,237,2.0,10.0,57,0.03,,,0.13,259.000000,,2013-03-03 20:01:00,
2013-03-03 15:32:00,28.0,15.0,-100.00,WSW,237,2.0,10.0,57,0.03,,,0.13,259.000000,,2013-03-03 20:32:00,
2013-03-03 15:43:00,28.0,15.0,-100.00,WSW,237,2.0,10.0,57,0.03,,,0.13,259.000000,,2013-03-03 20:43:00,
2013-03-03 15:53:00,28.0,15.0,-100.00,WSW,237,2.0,10.0,57,0.03,,,0.13,259.000000,,2013-03-03 20:53:00,
2013-03-03 16:01:00,27.0,15.0,-100.00,SW,232,3.0,10.0,60,0.00,,,0.13,138.000000,,2013-03-03 21:01:00,
2013-03-03 16:32:00,27.0,15.0,-100.00,SW,232,3.0,10.0,60,0.00,,,0.13,138.000000,,2013-03-03 21:32:00,
2013-03-03 16:42:00,27.0,15.0,-100.00,SW,232,3.0,10.0,60,0.00,,,0.13,138.000000,,2013-03-03 21:42:00,
2013-03-03 16:52:00,27.0,15.0,-100.00,SW,232,3.0,10.0,60,0.00,,,0.13,138.000000,,2013-03-03 21:52:00,
2013-03-03 17:01:00,26.0,16.0,-100.00,WSW,258,1.0,8.0,66,0.00,,,0.13,60.000000,,2013-03-03 22:01:00,
2013-03-03 17:32:00,26.0,16.0,-100.00,WSW,258,1.0,8.0,66,0.00,,,0.13,60.000000,,2013-03-03 22:32:00,
2013-03-03 17:42:00,26.0,16.0,-100.00,WSW,258,1.0,8.0,66,0.00,,,0.13,60.000000,,2013-03-03 22:42:00,
2013-03-03 17:52:00,26.0,16.0,-100.00,WSW,258,1.0,8.0,66,0.00,,,0.13,60.000000,,2013-03-03 22:52:00,
2013-03-03 18:01:00,23.0,16.0,-100.00,WSW,240,1.0,7.0,74,0.00,,,0.13,11.000000,,2013-03-03 23:01:00,
2013-03-03 18:32:00,23.0,16.0,-100.00,WSW,240,1.0,7.0,74,0.00,,,0.13,11.000000,,2013-03-03 23:32:00,
2013-03-03 18:42:00,23.0,16.0,-100.00,WSW,240,1.0,7.0,74,0.00,,,0.13,11.000000,,2013-03-03 23:42:00,
2013-03-03 18:52:00,23.0,16.0,-100.00,WSW,240,1.0,7.0,74,0.00,,,0.13,11.000000,,2013-03-03 23:52:00,
2013-03-03 19:01:00,23.0,17.0,-100.00,WSW,248,2.0,6.0,78,0.00,,,0.13,0.000000,,2013-03-04 00:01:00,
2013-03-03 19:32:00,23.0,17.0,-100.00,WSW,248,2.0,6.0,78,0.00,,,0.13,0.000000,,2013-03-04 00:32:00,
2013-03-03 19:42:00,23.0,17.0,-100.00,WSW,248,2.0,6.0,78,0.00,,,0.13,0.000000,,2013-03-04 00:42:00,
2013-03-03 19:52:00,23.0,17.0,-100.00,WSW,248,2.0,6.0,78,0.00,,,0.13,0.000000,,2013-03-04 00:52:00,
2013-03-03 20:01:00,22.0,17.0,-100.00,WSW,258,2.0,8.0,81,0.00,,,0.13,0.000000,,2013-03-04 01:01:00,
2013-03-03 20:32:00,22.0,17.0,-100.00,WSW,258,2.0,8.0,81,0.00,,,0.13,0.000000,,2013-03-04 01:32:00,
2013-03-03 20:42:00,22.0,17.0,-100.00,WSW,258,2.0,8.0,81,0.00,,,0.13,0.000000,,2013-03-04 01:42:00,
2013-03-03 20:52:00,22.0,17.0,-100.00,WSW,258,2.0,8.0,81,0.00,,,0.13,0.000000,,2013-03-04 01:52:00,
2013-03-03 21:01:00,22.0,16.0,-100.00,SW,233,2.0,7.0,79,0.00,,,0.13,0.000000,,2013-03-04 02:01:00,
2013-03-03 21:32:00,22.0,16.0,-100.00,SW,233,2.0,7.0,79,0.00,,,0.13,0.000000,,2013-03-04 02:32:00,
2013-03-03 21:42:00,22.0,16.0,-100.00,SW,233,2.0,7.0,79,0.00,,,0.13,0.000000,,2013-03-04 02:42:00,
2013-03-03 21:53:00,22.0,16.0,-100.00,SW,233,2.0,7.0,79,0.00,,,0.13,0.000000,,2013-03-04 02:53:00,
2013-03-03 22:01:00,22.0,17.0,-100.00,WSW,249,2.0,7.0,80,0.00,,,0.13,0.000000,,2013-03-04 03:01:00,
2013-03-03 22:22:00,22.0,17.0,-100.00,WSW,249,2.0,7.0,80,0.00,,,0.13,0.000000,,2013-03-04 03:22:00,
2013-03-03 22:32:00,22.0,17.0,-100.00,WSW,249,2.0,7.0,80,0.00,,,0.13,0.000000,,2013-03-04 03:32:00,
2013-03-03 22:42:00,22.0,17.0,-100.00,WSW,249,2.0,7.0,80,0.00,,,0.13,0.000000,,2013-03-04 03:42:00,
2013-03-03 22:53:00,22.0,17.0,-100.00,WSW,249,2.0,7.0,80,0.00,,,0.13,0.000000,,2013-03-04 03:53:00,
2013-03-03 23:01:00,22.0,17.0,-100.00,WSW,240,1.0,6.0,82,0.00,,,0.13,0.000000,,2013-03-04 04:01:00,
2013-03-03 23:32:00,22.0,17.0,-100.00,WSW,240,1.0,6.0,82,0.00,,,0.13,0.000000,,2013-03-04 04:32:00,
2013-03-03 23:42:00,22.0,17.0,-100.00,WSW,240,1.0,6.0,82,0.00,,,0.13,0.000000,,2013-03-04 04:42:00,
2013-03-03 23:52:00,22.0,17.0,-100.00,WSW,240,1.0,6.0,82,0.00,,,0.13,0.000000,,2013-03-04 04:52:00,